Time;durP1;ratioP1;P1;durP2;ratioP2;P2;SDS_P1;SDS_P2;PMS_P1;PMS_P2;Temp;Humidity;BMP_temperature;BMP_pressure;BME280_temperature;BME280_humidity;BME280_pressure;Samples;Min_cycle;Max_cycle;Signal;HPM_P1;HPM_P2
2023/01/27 00:00:54;;;;;;;25.13;13.38;;;0.80;99.90;;;;;;5106873;28;20536;-74
2023/01/27 00:03:20;;;;;;;26.13;14.13;;;0.70;99.90;;;;;;5107512;28;20023;-74
2023/01/27 00:05:46;;;;;;;26.98;13.85;;;0.70;99.90;;;;;;5107861;28;20023;-74
2023/01/27 00:08:12;;;;;;;29.80;13.57;;;0.70;99.90;;;;;;5108011;28;20084;-74
2023/01/27 00:10:38;;;;;;;26.98;13.93;;;0.60;99.90;;;;;;5106826;28;20043;-75
2023/01/27 00:15:47;;;;;;;22.33;13.30;;;0.60;99.90;;;;;;5110335;28;20382;-73
2023/01/27 00:18:13;;;;;;;24.95;13.52;;;0.80;99.90;;;;;;5113812;28;20023;-73
2023/01/27 00:26:11;;;;;;;21.85;13.07;;;0.70;99.90;;;;;;5111408;28;20047;-74
2023/01/27 00:28:39;;;;;;;28.10;15.65;;;0.50;99.90;;;;;;5112093;28;20530;-74
2023/01/27 00:31:06;;;;;;;28.90;14.80;;;0.50;99.90;;;;;;5113276;28;20082;-74
2023/01/27 00:33:32;;;;;;;24.75;12.73;;;0.40;99.90;;;;;;5112796;28;20027;-74
2023/01/27 00:36:06;;;;;;;27.02;14.05;;;0.30;99.90;;;;;;5112223;28;20031;-74
2023/01/27 00:38:39;;;;;;;29.30;15.38;;;0.30;99.90;;;;;;5112058;28;20076;-73
2023/01/27 00:41:14;;;;;;;24.38;13.60;;;0.40;99.90;;;;;;5112486;28;20485;-72
2023/01/27 00:43:40;;;;;;;22.85;12.93;;;0.50;99.90;;;;;;5110621;28;20110;-75
2023/01/27 00:46:06;;;;;;;34.08;15.60;;;0.70;99.90;;;;;;5111191;28;20028;-73
2023/01/27 00:48:32;;;;;;;28.05;14.30;;;0.80;99.90;;;;;;5113145;28;20032;-74
2023/01/27 00:50:58;;;;;;;25.65;14.02;;;0.90;99.90;;;;;;5112461;28;20031;-74
2023/01/27 00:53:24;;;;;;;26.75;14.82;;;1.00;99.90;;;;;;5092623;28;20069;-74
2023/01/27 00:55:50;;;;;;;30.10;14.57;;;0.90;99.90;;;;;;5105100;28;20062;-74
2023/01/27 00:58:15;;;;;;;27.67;14.68;;;0.80;99.90;;;;;;5112588;28;20015;-73
2023/01/27 01:00:41;;;;;;;28.75;14.82;;;0.80;99.90;;;;;;5111390;28;20166;-73
2023/01/27 01:03:07;;;;;;;27.20;14.27;;;0.70;99.90;;;;;;5111228;28;20031;-73
2023/01/27 01:05:33;;;;;;;28.73;14.48;;;0.60;99.90;;;;;;5110249;28;20031;-74
2023/01/27 01:07:58;;;;;;;31.08;15.43;;;0.50;99.90;;;;;;5112616;28;20039;-74
2023/01/27 01:10:24;;;;;;;29.58;14.23;;;0.40;99.90;;;;;;5111851;28;20035;-74
2023/01/27 01:12:50;;;;;;;24.85;14.07;;;0.30;99.90;;;;;;5112373;28;20034;-74
2023/01/27 01:15:16;;;;;;;21.58;12.65;;;0.20;99.90;;;;;;5111553;28;20381;-73
2023/01/27 01:17:41;;;;;;;25.33;13.80;;;0.30;99.90;;;;;;5112161;28;20028;-73
2023/01/27 01:20:07;;;;;;;27.45;15.48;;;0.30;99.90;;;;;;5112432;28;20397;-73
2023/01/27 01:22:33;;;;;;;28.88;14.65;;;0.30;99.90;;;;;;5110031;28;20038;-73
2023/01/27 01:24:59;;;;;;;27.83;14.38;;;0.20;99.90;;;;;;5111369;28;20393;-74
2023/01/27 01:27:25;;;;;;;28.58;14.60;;;0.30;99.90;;;;;;5107914;28;20028;-74
2023/01/27 01:29:50;;;;;;;26.05;13.75;;;0.20;99.90;;;;;;5112397;28;20451;-73
2023/01/27 01:32:16;;;;;;;25.65;13.65;;;-0.10;99.90;;;;;;5112750;28;20031;-74
2023/01/27 01:34:42;;;;;;;27.13;12.88;;;0.00;99.90;;;;;;5110594;28;20080;-74
2023/01/27 01:37:08;;;;;;;29.52;14.48;;;0.00;99.90;;;;;;5111675;28;20401;-74
2023/01/27 01:39:34;;;;;;;27.17;13.63;;;0.10;99.90;;;;;;5111911;28;20023;-73
2023/01/27 01:42:00;;;;;;;26.65;13.77;;;0.20;99.90;;;;;;5106510;28;20069;-73
2023/01/27 01:44:30;;;;;;;28.48;14.40;;;-0.10;99.90;;;;;;5091849;28;20028;-73
2023/01/27 01:46:56;;;;;;;27.90;14.32;;;0.00;99.90;;;;;;5108218;28;20024;-74
2023/01/27 01:49:26;;;;;;;26.02;13.23;;;0.00;99.90;;;;;;5110603;28;20409;-74
2023/01/27 01:51:58;;;;;;;30.40;13.57;;;0.10;99.90;;;;;;5111197;28;20038;-73
2023/01/27 01:54:37;;;;;;;26.50;13.75;;;0.40;99.90;;;;;;5112048;28;20072;-74
2023/01/27 01:57:09;;;;;;;27.27;13.75;;;0.40;99.90;;;;;;5091308;28;20367;-72
2023/01/27 01:59:42;;;;;;;27.48;13.30;;;0.30;99.90;;;;;;5097407;28;20440;-74
2023/01/27 02:02:14;;;;;;;29.30;14.52;;;0.30;99.90;;;;;;5112497;28;20470;-74
2023/01/27 02:04:52;;;;;;;29.20;14.05;;;0.30;99.90;;;;;;5110559;28;20042;-73
2023/01/27 02:07:27;;;;;;;22.35;13.40;;;0.30;99.90;;;;;;5110317;28;20038;-74
2023/01/27 02:09:55;;;;;;;29.45;15.82;;;0.40;99.90;;;;;;5109357;28;20032;-73
2023/01/27 02:12:21;;;;;;;24.30;13.10;;;0.30;99.90;;;;;;5112124;28;20076;-74
2023/01/27 02:14:47;;;;;;;28.10;14.27;;;0.20;99.90;;;;;;5111453;28;20480;-73
2023/01/27 02:17:12;;;;;;;23.55;12.73;;;0.30;99.90;;;;;;5115579;28;20043;-74
2023/01/27 02:20:16;;;;;;;28.25;14.13;;;0.30;99.90;;;;;;5115000;28;20080;-73
2023/01/27 02:22:41;;;;;;;21.90;12.52;;;0.30;99.90;;;;;;5114606;28;20027;-74
2023/01/27 02:25:39;;;;;;;27.48;14.65;;;0.40;99.90;;;;;;5111646;28;20069;-72
2023/01/27 02:28:07;;;;;;;28.70;13.68;;;0.40;99.90;;;;;;5104611;28;20490;-74
2023/01/27 02:30:33;;;;;;;25.33;15.27;;;0.50;99.90;;;;;;5115850;28;20078;-74
2023/01/27 02:32:59;;;;;;;24.83;13.50;;;0.50;99.90;;;;;;5114923;28;20028;-74
2023/01/27 02:35:33;;;;;;;28.27;13.82;;;0.50;99.90;;;;;;5113808;28;20020;-74
2023/01/27 02:37:59;;;;;;;26.38;12.80;;;0.50;99.90;;;;;;5113610;28;20035;-73
2023/01/27 02:40:28;;;;;;;23.38;12.27;;;0.60;99.90;;;;;;5113347;28;20031;-74
2023/01/27 02:42:56;;;;;;;26.52;13.63;;;0.50;99.90;;;;;;5101793;28;20051;-73
2023/01/27 02:45:23;;;;;;;23.23;11.80;;;0.40;99.90;;;;;;5099474;28;20027;-74
2023/01/27 02:47:48;;;;;;;25.48;12.77;;;0.40;99.90;;;;;;5114852;28;20096;-74
2023/01/27 02:50:15;;;;;;;26.02;14.07;;;0.30;99.90;;;;;;5115052;28;20063;-74
2023/01/27 02:52:40;;;;;;;25.52;13.70;;;0.20;99.90;;;;;;5114133;28;20481;-74
2023/01/27 02:55:07;;;;;;;27.92;13.13;;;0.10;99.90;;;;;;5113468;28;20120;-73
2023/01/27 02:57:32;;;;;;;27.83;12.85;;;0.10;99.90;;;;;;5114468;28;20039;-74
2023/01/27 02:59:58;;;;;;;31.55;13.57;;;0.20;99.90;;;;;;5112220;28;20035;-73
2023/01/27 03:02:29;;;;;;;25.60;11.70;;;0.30;99.90;;;;;;5112169;28;20027;-74
2023/01/27 03:04:55;;;;;;;25.92;13.27;;;0.40;99.90;;;;;;5113959;28;20031;-73
2023/01/27 03:07:21;;;;;;;21.13;11.05;;;0.30;99.90;;;;;;5114433;28;20033;-74
2023/01/27 03:09:47;;;;;;;23.73;11.88;;;0.30;99.90;;;;;;5110887;28;20405;-74
2023/01/27 03:12:19;;;;;;;22.60;11.73;;;0.30;99.90;;;;;;5113018;28;20119;-74
2023/01/27 03:20:14;;;;;;;25.13;12.38;;;0.10;99.90;;;;;;5114153;28;20042;-74
2023/01/27 03:22:39;;;;;;;22.20;11.98;;;0.20;99.90;;;;;;5114662;28;20475;-73
2023/01/27 03:25:05;;;;;;;25.25;12.35;;;0.30;99.90;;;;;;5113355;28;20043;-73
2023/01/27 03:27:31;;;;;;;21.48;11.73;;;0.30;99.90;;;;;;5112905;28;20106;-74
2023/01/27 03:29:56;;;;;;;27.80;13.75;;;0.30;99.90;;;;;;5114025;28;20036;-74
2023/01/27 03:32:28;;;;;;;22.27;11.23;;;0.20;99.90;;;;;;5112479;28;20031;-73
2023/01/27 03:34:56;;;;;;;24.88;12.23;;;0.20;99.90;;;;;;5113152;28;20076;-73
2023/01/27 03:48:22;;;;;;;19.83;10.27;;;-0.10;99.90;;;;;;5106584;28;20546;-74
2023/01/27 03:50:52;;;;;;;19.05;9.18;;;-0.10;99.90;;;;;;5112736;28;20049;-74
2023/01/27 03:53:18;;;;;;;20.33;10.52;;;-0.10;99.90;;;;;;5112360;28;20023;-74
2023/01/27 03:55:45;;;;;;;25.33;11.68;;;-0.10;99.90;;;;;;5112882;28;20024;-74
2023/01/27 03:58:23;;;;;;;22.48;11.38;;;0.00;99.90;;;;;;5112746;28;20024;-73
2023/01/27 04:00:52;;;;;;;21.83;10.77;;;0.00;99.90;;;;;;5112821;28;20035;-72
2023/01/27 04:09:00;;;;;;;23.60;11.75;;;0.00;99.90;;;;;;5108383;28;20408;-73
2023/01/27 04:14:11;;;;;;;24.10;12.73;;;0.00;99.90;;;;;;5106331;28;20042;-72
2023/01/27 04:16:38;;;;;;;22.85;10.50;;;-0.10;99.90;;;;;;5107816;28;20028;-72
2023/01/27 04:19:05;;;;;;;19.15;10.40;;;-0.10;99.90;;;;;;5092127;28;20036;-74
2023/01/27 04:21:32;;;;;;;22.08;11.25;;;-0.10;99.90;;;;;;5104974;28;20035;-73
2023/01/27 04:23:58;;;;;;;25.30;12.55;;;0.00;99.90;;;;;;5108215;28;20672;-72
2023/01/27 04:26:23;;;;;;;22.42;10.73;;;0.00;99.90;;;;;;5090936;28;20027;-73
2023/01/27 04:28:49;;;;;;;19.52;11.55;;;0.10;99.90;;;;;;5108759;28;20478;-72
2023/01/27 04:31:16;;;;;;;23.27;11.65;;;0.10;99.90;;;;;;5108332;28;20491;-72
2023/01/27 04:33:43;;;;;;;22.48;11.68;;;0.10;99.90;;;;;;5105532;28;20089;-73
2023/01/27 04:36:11;;;;;;;27.67;10.90;;;0.00;99.90;;;;;;5108749;28;20081;-72
2023/01/27 04:38:37;;;;;;;21.77;11.75;;;0.00;99.90;;;;;;5108050;28;20035;-72
2023/01/27 04:41:03;;;;;;;24.77;11.23;;;0.10;99.90;;;;;;5107875;28;20027;-72
2023/01/27 04:43:29;;;;;;;19.58;10.35;;;-0.10;99.90;;;;;;5101479;28;20038;-72
2023/01/27 04:45:54;;;;;;;25.02;13.35;;;-0.10;99.90;;;;;;5105905;28;20034;-72
2023/01/27 04:48:20;;;;;;;19.65;12.00;;;-0.10;99.90;;;;;;5103688;28;20120;-72
2023/01/27 04:50:46;;;;;;;24.65;11.98;;;-0.20;99.90;;;;;;5104616;28;20040;-72
2023/01/27 04:53:11;;;;;;;25.15;13.05;;;-0.20;99.90;;;;;;5105246;28;20027;-73
2023/01/27 04:55:37;;;;;;;19.33;10.90;;;-0.20;99.90;;;;;;5104060;28;20034;-72
2023/01/27 04:58:04;;;;;;;20.85;11.15;;;-0.10;99.90;;;;;;5105188;28;20023;-72
2023/01/27 05:00:30;;;;;;;18.25;10.18;;;-0.20;99.90;;;;;;5104126;28;20058;-72
2023/01/27 05:02:56;;;;;;;21.08;10.13;;;-0.40;99.90;;;;;;5104870;28;20135;-72
2023/01/27 05:05:22;;;;;;;22.85;10.38;;;-0.40;99.90;;;;;;5106034;28;20600;-72
2023/01/27 05:07:47;;;;;;;25.33;11.85;;;-0.40;99.90;;;;;;5105499;28;20060;-73
2023/01/27 05:10:13;;;;;;;19.50;10.38;;;-0.30;99.90;;;;;;5103821;28;20040;-72
2023/01/27 05:12:38;;;;;;;20.83;10.77;;;-0.30;99.90;;;;;;5105443;28;20490;-72
2023/01/27 05:15:05;;;;;;;18.33;9.65;;;-0.20;99.90;;;;;;5103728;28;20500;-72
2023/01/27 05:17:31;;;;;;;20.23;10.90;;;-0.20;99.90;;;;;;5104094;28;20039;-75
2023/01/27 05:19:57;;;;;;;21.25;12.65;;;-0.20;99.90;;;;;;5103116;28;20028;-72
2023/01/27 05:22:23;;;;;;;19.77;9.75;;;-0.20;99.90;;;;;;5104559;28;20034;-72
2023/01/27 05:24:48;;;;;;;22.48;10.05;;;-0.20;99.90;;;;;;5104598;28;20055;-73
2023/01/27 05:27:15;;;;;;;18.17;10.70;;;-0.20;99.90;;;;;;5105029;28;20027;-72
2023/01/27 05:29:40;;;;;;;16.90;8.65;;;0.00;99.90;;;;;;5102868;28;20031;-72
2023/01/27 05:32:06;;;;;;;20.10;9.65;;;0.00;99.90;;;;;;5105405;28;20024;-72
2023/01/27 05:34:31;;;;;;;19.00;10.32;;;-0.20;99.90;;;;;;5104710;28;20032;-72
2023/01/27 05:36:57;;;;;;;19.70;9.93;;;-0.20;99.90;;;;;;5105223;28;20040;-72
2023/01/27 05:39:22;;;;;;;21.15;10.38;;;-0.50;99.90;;;;;;5103193;28;21057;-72
2023/01/27 05:41:49;;;;;;;20.92;9.13;;;-0.60;99.90;;;;;;5100679;28;20031;-72
2023/01/27 05:44:14;;;;;;;18.35;10.07;;;-0.70;99.90;;;;;;5096683;28;20035;-75
2023/01/27 05:46:41;;;;;;;18.88;9.57;;;-0.60;99.90;;;;;;5103718;28;20030;-72
2023/01/27 05:49:07;;;;;;;21.50;11.00;;;-0.50;99.90;;;;;;5104456;28;20046;-72
2023/01/27 05:51:35;;;;;;;22.13;10.45;;;-0.50;99.90;;;;;;5108849;28;20032;-72
2023/01/27 05:54:02;;;;;;;20.77;10.02;;;-0.50;99.90;;;;;;5103202;28;20015;-72
2023/01/27 05:56:27;;;;;;;18.50;9.43;;;-0.50;99.90;;;;;;5108783;28;20034;-73
2023/01/27 05:58:54;;;;;;;20.52;9.18;;;-0.60;99.90;;;;;;5107114;28;20036;-72
2023/01/27 06:01:24;;;;;;;18.98;10.40;;;-0.70;99.90;;;;;;5108417;28;20497;-72
2023/01/27 06:03:50;;;;;;;17.42;9.60;;;-0.70;99.90;;;;;;5108554;28;20359;-72
2023/01/27 06:06:18;;;;;;;19.42;9.65;;;-0.70;99.90;;;;;;5106885;28;20027;-72
2023/01/27 06:08:44;;;;;;;22.85;9.77;;;-0.60;99.90;;;;;;5107015;28;20465;-73
2023/01/27 06:11:10;;;;;;;24.35;10.52;;;-0.60;99.90;;;;;;5107216;28;20031;-72
2023/01/27 06:13:37;;;;;;;21.10;9.60;;;-0.50;99.90;;;;;;5108050;28;20031;-72
2023/01/27 06:16:05;;;;;;;20.55;10.40;;;-0.50;99.90;;;;;;5108539;28;20024;-72
2023/01/27 06:18:31;;;;;;;18.17;9.70;;;-0.70;99.90;;;;;;5104823;28;20042;-72
2023/01/27 06:20:58;;;;;;;19.38;9.63;;;-0.70;99.90;;;;;;5107603;28;20581;-74
2023/01/27 06:23:24;;;;;;;19.17;9.35;;;-0.50;99.90;;;;;;5104806;28;20049;-73
2023/01/27 06:25:50;;;;;;;18.33;10.10;;;-0.50;99.90;;;;;;5109599;28;20114;-72
2023/01/27 06:28:16;;;;;;;22.50;10.35;;;-0.40;99.90;;;;;;5111169;28;20038;-72
2023/01/27 06:30:43;;;;;;;17.90;9.25;;;-0.40;99.90;;;;;;5108138;28;20485;-72
2023/01/27 06:33:09;;;;;;;17.30;8.63;;;-0.50;99.90;;;;;;5105739;28;20473;-72
2023/01/27 06:35:36;;;;;;;21.23;9.05;;;-0.40;99.90;;;;;;5105276;28;20540;-71
2023/01/27 06:38:04;;;;;;;15.82;9.38;;;-0.50;99.90;;;;;;5111813;28;20055;-72
2023/01/27 06:40:31;;;;;;;19.08;9.60;;;-0.40;99.90;;;;;;5108676;28;20063;-71
2023/01/27 06:42:57;;;;;;;19.30;9.40;;;-0.60;99.90;;;;;;5107398;28;20030;-71
2023/01/27 06:45:23;;;;;;;18.48;9.50;;;-0.70;99.90;;;;;;5095910;28;20058;-72
2023/01/27 06:48:07;;;;;;;17.23;9.30;;;-0.80;99.90;;;;;;5096267;28;20020;-72
2023/01/27 06:50:33;;;;;;;17.83;9.57;;;-0.80;99.90;;;;;;5107242;28;20111;-72
2023/01/27 06:53:08;;;;;;;20.23;10.05;;;-0.80;99.90;;;;;;5107277;28;20130;-73
2023/01/27 06:55:40;;;;;;;18.95;8.60;;;-0.80;99.90;;;;;;5106269;28;20047;-72
2023/01/27 06:58:07;;;;;;;18.27;9.27;;;-0.70;99.90;;;;;;5108028;28;20015;-73
2023/01/27 07:00:32;;;;;;;17.90;8.90;;;-0.70;99.90;;;;;;5106759;28;20030;-72
2023/01/27 07:02:58;;;;;;;18.40;9.68;;;-0.90;99.90;;;;;;5107374;28;20035;-73
2023/01/27 07:05:23;;;;;;;17.02;9.07;;;-0.80;99.90;;;;;;5107442;28;20057;-76
2023/01/27 07:07:49;;;;;;;16.25;8.80;;;-0.70;99.90;;;;;;5107835;28;20461;-74
2023/01/27 07:10:15;;;;;;;16.48;7.95;;;-0.80;99.90;;;;;;5106413;28;21081;-73
2023/01/27 07:12:41;;;;;;;15.52;8.32;;;-1.00;99.90;;;;;;5105815;28;20036;-73
2023/01/27 07:15:08;;;;;;;15.85;8.20;;;-0.90;99.90;;;;;;5107091;28;20043;-73
2023/01/27 07:17:35;;;;;;;19.23;9.80;;;-0.80;99.90;;;;;;5107072;28;20084;-74
2023/01/27 07:20:01;;;;;;;18.55;9.00;;;-0.60;99.90;;;;;;5107030;28;20027;-73
2023/01/27 07:22:27;;;;;;;16.55;8.68;;;-0.70;99.90;;;;;;5105200;28;20036;-73
2023/01/27 07:24:54;;;;;;;20.75;9.20;;;-0.60;99.90;;;;;;5107107;28;20136;-73
2023/01/27 07:27:24;;;;;;;18.67;8.95;;;-0.40;99.90;;;;;;5106856;28;20072;-73
2023/01/27 07:29:50;;;;;;;16.58;9.23;;;-0.40;99.90;;;;;;5105844;28;20035;-73
2023/01/27 07:32:15;;;;;;;17.05;8.65;;;-0.30;99.90;;;;;;5106579;28;20027;-73
2023/01/27 07:34:41;;;;;;;21.05;10.07;;;-0.30;99.90;;;;;;5104894;28;20024;-75
2023/01/27 07:37:07;;;;;;;18.45;7.60;;;-0.40;99.90;;;;;;5106061;28;20089;-73
2023/01/27 07:39:33;;;;;;;15.73;8.18;;;-0.30;99.90;;;;;;5106346;28;20065;-75
2023/01/27 07:42:02;;;;;;;15.32;7.53;;;-0.20;99.90;;;;;;5105380;28;20030;-73
2023/01/27 07:44:28;;;;;;;11.95;7.63;;;-0.30;99.90;;;;;;5105255;28;20031;-72
2023/01/27 07:46:57;;;;;;;23.08;9.75;;;-0.40;99.90;;;;;;5106764;28;20072;-73
2023/01/27 07:49:23;;;;;;;18.02;8.63;;;-0.40;99.90;;;;;;5106436;28;20039;-73
2023/01/27 07:51:49;;;;;;;22.45;8.70;;;-0.50;99.90;;;;;;5106290;28;20107;-75
2023/01/27 07:54:15;;;;;;;16.88;8.30;;;-0.50;99.90;;;;;;5104483;28;20039;-72
2023/01/27 07:56:41;;;;;;;16.67;7.82;;;-0.40;99.90;;;;;;5106503;28;20031;-73
2023/01/27 07:59:08;;;;;;;17.83;8.80;;;-0.30;99.90;;;;;;5105992;28;20548;-73
2023/01/27 08:01:35;;;;;;;20.90;9.07;;;-0.60;99.90;;;;;;5104170;28;20561;-73
2023/01/27 08:04:00;;;;;;;17.95;8.75;;;-0.60;99.90;;;;;;5108276;28;20089;-73
2023/01/27 08:06:26;;;;;;;20.38;9.30;;;-0.60;99.90;;;;;;5097709;28;20024;-73
2023/01/27 08:08:52;;;;;;;17.20;8.30;;;-0.70;99.90;;;;;;5114230;27;20031;-73
2023/01/27 08:11:17;;;;;;;16.92;8.50;;;-0.70;99.90;;;;;;5104926;28;20841;-73
2023/01/27 08:13:43;;;;;;;16.55;9.85;;;-0.60;99.90;;;;;;5105531;28;20351;-73
2023/01/27 08:16:13;;;;;;;17.77;8.90;;;-0.60;99.90;;;;;;5108675;28;20088;-73
2023/01/27 08:18:39;;;;;;;16.70;9.18;;;-0.60;99.90;;;;;;5106734;28;20023;-73
2023/01/27 08:21:07;;;;;;;13.88;7.63;;;-0.60;99.90;;;;;;5108224;28;20077;-73
2023/01/27 08:23:33;;;;;;;24.40;8.40;;;-0.60;99.90;;;;;;5108565;28;20104;-73
2023/01/27 08:26:00;;;;;;;13.20;7.68;;;-0.50;99.90;;;;;;5108785;28;20031;-73
2023/01/27 08:28:28;;;;;;;11.13;6.60;;;-0.50;99.90;;;;;;5108635;28;20045;-73
2023/01/27 08:30:54;;;;;;;15.50;7.28;;;-0.50;99.90;;;;;;5108947;28;20477;-73
2023/01/27 08:33:23;;;;;;;14.25;7.50;;;-0.50;99.90;;;;;;5106189;28;20023;-73
2023/01/27 08:35:49;;;;;;;12.77;6.53;;;-0.70;99.90;;;;;;5107278;28;20023;-73
2023/01/27 08:38:17;;;;;;;15.90;7.70;;;-0.70;99.90;;;;;;5085714;28;20108;-73
2023/01/27 08:40:45;;;;;;;16.00;8.52;;;-0.50;99.90;;;;;;5104670;28;20034;-73
2023/01/27 08:43:11;;;;;;;14.90;7.55;;;-0.30;99.90;;;;;;5104013;28;20028;-73
2023/01/27 08:45:37;;;;;;;16.75;8.55;;;-0.40;99.90;;;;;;5108358;28;20027;-73
2023/01/27 08:48:04;;;;;;;14.60;7.15;;;-0.40;99.90;;;;;;5108231;28;20047;-73
2023/01/27 08:50:30;;;;;;;15.13;7.22;;;-0.40;99.90;;;;;;5107993;28;20032;-73
2023/01/27 08:52:58;;;;;;;11.93;6.43;;;-0.30;99.90;;;;;;5105743;28;20031;-73
2023/01/27 08:55:27;;;;;;;14.45;7.18;;;-0.40;99.90;;;;;;5104819;28;20024;-74
2023/01/27 08:57:53;;;;;;;12.90;6.70;;;-0.40;99.90;;;;;;5101920;28;20071;-73
2023/01/27 09:00:19;;;;;;;16.38;7.55;;;-0.40;99.90;;;;;;5084240;28;20059;-73
2023/01/27 09:02:45;;;;;;;13.75;6.57;;;-0.40;99.90;;;;;;5105361;28;20589;-73
2023/01/27 09:05:11;;;;;;;13.35;7.10;;;-0.30;99.90;;;;;;5104214;28;20106;-73
2023/01/27 09:07:37;;;;;;;17.02;7.03;;;-0.30;99.90;;;;;;5104071;28;20090;-73
2023/01/27 09:10:03;;;;;;;14.05;6.88;;;-0.20;99.90;;;;;;5105133;28;20044;-73
2023/01/27 09:12:29;;;;;;;16.58;8.18;;;-0.20;99.90;;;;;;5105083;28;20592;-73
2023/01/27 09:14:57;;;;;;;14.98;8.07;;;-0.30;99.90;;;;;;5103494;28;20115;-74
2023/01/27 09:17:23;;;;;;;24.08;9.82;;;-0.40;99.90;;;;;;5093234;28;20036;-75
2023/01/27 09:19:49;;;;;;;19.02;8.68;;;-0.40;99.90;;;;;;5104592;28;20430;-73
2023/01/27 09:22:14;;;;;;;17.83;8.43;;;-0.50;99.90;;;;;;5104564;28;20087;-73
2023/01/27 09:24:40;;;;;;;17.38;7.75;;;-0.40;99.90;;;;;;5102432;28;20046;-73
2023/01/27 09:27:05;;;;;;;16.52;8.00;;;-0.30;99.90;;;;;;5107687;28;20066;-73
2023/01/27 09:29:31;;;;;;;15.85;7.72;;;-0.30;99.90;;;;;;5108760;28;20122;-73
2023/01/27 09:31:57;;;;;;;17.90;8.18;;;-0.20;99.90;;;;;;5108095;28;20138;-73
2023/01/27 09:34:23;;;;;;;13.13;6.80;;;-0.10;99.90;;;;;;5106167;28;20039;-73
2023/01/27 09:36:56;;;;;;;13.43;7.82;;;-0.10;99.90;;;;;;5108485;28;20035;-73
2023/01/27 09:39:22;;;;;;;13.82;8.00;;;0.00;99.90;;;;;;5109122;28;20035;-73
2023/01/27 09:42:18;;;;;;;12.48;7.85;;;0.00;99.90;;;;;;5106376;28;20762;-73
2023/01/27 09:44:52;;;;;;;16.63;7.82;;;0.10;99.90;;;;;;5034672;28;20049;-73
2023/01/27 09:47:36;;;;;;;16.33;7.72;;;0.30;99.90;;;;;;5108263;28;20058;-73
2023/01/27 09:50:29;;;;;;;17.00;7.55;;;0.30;99.90;;;;;;5108605;28;20031;-73
2023/01/27 09:53:19;;;;;;;12.48;6.93;;;0.20;99.90;;;;;;5088584;28;20028;-73
2023/01/27 09:55:55;;;;;;;13.63;7.82;;;0.10;99.90;;;;;;5088160;28;20040;-73
2023/01/27 09:58:43;;;;;;;14.45;8.20;;;0.30;99.90;;;;;;5089324;28;20028;-73
2023/01/27 10:01:29;;;;;;;13.82;7.05;;;0.40;99.90;;;;;;5107884;28;20673;-73
2023/01/27 10:04:10;;;;;;;17.08;8.27;;;0.50;99.90;;;;;;5106860;28;20486;-73
2023/01/27 10:06:44;;;;;;;15.25;7.55;;;0.60;99.90;;;;;;5108357;28;20582;-73
2023/01/27 10:09:16;;;;;;;13.45;6.93;;;0.60;99.90;;;;;;5108282;28;20031;-73
2023/01/27 10:11:44;;;;;;;15.13;7.95;;;0.70;99.90;;;;;;5107849;28;20043;-75
2023/01/27 10:14:31;;;;;;;17.27;8.55;;;0.70;99.90;;;;;;5108639;28;20043;-73
2023/01/27 10:17:23;;;;;;;16.80;8.63;;;0.70;99.90;;;;;;5107594;28;20035;-74
2023/01/27 10:20:19;;;;;;;15.00;8.77;;;0.70;99.90;;;;;;5108189;28;20032;-73
2023/01/27 10:22:54;;;;;;;17.02;7.75;;;0.90;99.90;;;;;;5106616;28;20036;-73
2023/01/27 10:25:38;;;;;;;16.70;7.72;;;1.00;99.90;;;;;;5107652;28;20031;-73
2023/01/27 10:28:16;;;;;;;15.32;8.10;;;1.00;99.90;;;;;;5107891;28;20599;-73
2023/01/27 10:31:00;;;;;;;15.77;7.80;;;1.10;99.90;;;;;;5107789;28;20065;-73
2023/01/27 10:33:52;;;;;;;17.73;10.43;;;1.20;99.90;;;;;;5106698;28;20030;-74
2023/01/27 10:36:37;;;;;;;15.18;9.13;;;1.40;99.90;;;;;;5105675;28;20119;-74
2023/01/27 10:39:25;;;;;;;21.30;11.07;;;1.60;99.90;;;;;;5107878;28;20505;-74
2023/01/27 10:42:13;;;;;;;19.58;9.80;;;1.80;99.90;;;;;;5105843;28;20452;-74
2023/01/27 10:44:53;;;;;;;20.73;9.88;;;1.80;99.90;;;;;;5107805;28;20024;-74
2023/01/27 10:47:37;;;;;;;16.90;8.30;;;1.90;99.90;;;;;;5107782;28;20032;-74
2023/01/27 10:50:15;;;;;;;16.83;8.90;;;1.90;99.90;;;;;;5106562;28;20039;-76
2023/01/27 10:52:56;;;;;;;19.42;9.80;;;2.00;99.90;;;;;;5107803;28;20053;-74
2023/01/27 10:55:25;;;;;;;16.05;8.85;;;2.10;99.90;;;;;;5107101;28;20049;-73
2023/01/27 10:58:26;;;;;;;17.67;9.18;;;2.20;99.90;;;;;;5107468;28;20526;-74
2023/01/27 11:00:53;;;;;;;20.25;10.48;;;2.30;99.90;;;;;;5087085;28;20500;-77
2023/01/27 11:03:28;;;;;;;18.83;9.20;;;2.30;99.90;;;;;;5107622;28;21053;-75
2023/01/27 11:06:03;;;;;;;24.10;9.45;;;2.50;99.90;;;;;;5107796;28;20031;-74
2023/01/27 11:08:34;;;;;;;15.93;9.07;;;2.50;99.90;;;;;;5106930;28;20066;-74
2023/01/27 11:13:49;;;;;;;15.85;9.75;;;2.70;99.90;;;;;;5106471;28;20081;-74
2023/01/27 11:16:17;;;;;;;16.23;9.23;;;2.50;99.90;;;;;;5106471;28;20024;-76
2023/01/27 11:18:45;;;;;;;15.80;8.57;;;2.60;99.90;;;;;;5106538;28;20539;-76
2023/01/27 11:21:28;;;;;;;18.55;10.02;;;2.70;99.90;;;;;;5106748;28;20106;-76
2023/01/27 11:23:55;;;;;;;15.73;8.77;;;2.80;99.90;;;;;;5107009;28;20055;-74
2023/01/27 11:26:40;;;;;;;17.88;9.65;;;3.00;99.90;;;;;;5106671;28;20015;-74
2023/01/27 11:29:30;;;;;;;20.15;9.75;;;2.80;99.90;;;;;;5104219;28;20118;-74
2023/01/27 11:32:07;;;;;;;19.95;9.63;;;2.90;99.90;;;;;;5104272;28;20028;-74
2023/01/27 11:34:47;;;;;;;18.52;8.98;;;3.00;99.90;;;;;;5106795;28;20056;-75
2023/01/27 11:37:24;;;;;;;18.65;10.43;;;3.30;99.90;;;;;;5105556;28;20079;-76
2023/01/27 11:39:50;;;;;;;17.33;8.77;;;3.50;99.90;;;;;;5106115;28;20039;-74
2023/01/27 11:42:16;;;;;;;16.70;9.50;;;3.60;99.90;;;;;;5105891;28;20050;-74
2023/01/27 11:44:42;;;;;;;16.05;9.35;;;3.50;99.90;;;;;;5106565;28;20600;-74
2023/01/27 11:47:22;;;;;;;21.83;11.27;;;3.30;99.90;;;;;;5105871;28;20028;-75
2023/01/27 11:49:51;;;;;;;18.05;9.35;;;3.40;99.90;;;;;;5100433;28;20024;-74
2023/01/27 11:52:19;;;;;;;20.45;10.38;;;3.50;99.50;;;;;;5104487;28;20103;-75
2023/01/27 11:54:51;;;;;;;20.13;10.63;;;3.50;99.50;;;;;;5106603;28;20031;-75
2023/01/27 11:57:20;;;;;;;20.23;9.88;;;3.80;99.70;;;;;;5106253;28;20024;-74
2023/01/27 11:59:51;;;;;;;17.33;9.65;;;4.00;99.70;;;;;;5085757;28;20016;-74
2023/01/27 12:02:28;;;;;;;19.35;10.48;;;4.20;99.80;;;;;;5085613;28;20028;-76
2023/01/27 12:05:08;;;;;;;16.20;9.13;;;4.50;99.30;;;;;;5085785;28;20120;-75
2023/01/27 12:07:42;;;;;;;16.40;9.30;;;4.80;98.60;;;;;;5085524;28;20072;-74
2023/01/27 12:10:32;;;;;;;18.20;10.75;;;4.60;98.50;;;;;;5085608;28;20059;-74
2023/01/27 12:13:17;;;;;;;22.58;10.77;;;4.70;98.70;;;;;;5105818;28;20092;-74
2023/01/27 12:15:48;;;;;;;17.80;8.88;;;5.20;98.60;;;;;;5106039;28;20114;-74
2023/01/27 12:18:14;;;;;;;18.55;10.63;;;5.50;97.80;;;;;;5108977;28;20023;-74
2023/01/27 12:20:45;;;;;;;19.92;10.25;;;5.60;97.90;;;;;;5108230;28;20365;-74
2023/01/27 12:23:18;;;;;;;18.40;9.65;;;5.30;97.70;;;;;;5109334;28;20032;-76
2023/01/27 12:25:49;;;;;;;17.60;9.23;;;5.20;97.60;;;;;;5108304;28;20055;-74
2023/01/27 12:28:22;;;;;;;24.55;12.18;;;5.10;97.70;;;;;;5107647;28;20118;-74
2023/01/27 12:30:50;;;;;;;23.83;18.02;;;5.00;97.90;;;;;;5102505;28;20495;-74
2023/01/27 12:33:27;;;;;;;19.50;13.43;;;5.10;97.50;;;;;;5104425;28;20032;-74
2023/01/27 12:35:58;;;;;;;20.92;11.57;;;5.10;97.20;;;;;;5106312;28;20037;-75
2023/01/27 12:38:26;;;;;;;178.50;116.90;;;4.90;97.60;;;;;;5106625;28;20078;-74
2023/01/27 12:41:06;;;;;;;32.67;20.48;;;4.60;98.60;;;;;;5108876;28;20024;-74
2023/01/27 12:43:52;;;;;;;20.75;12.38;;;5.00;99.90;;;;;;5108497;28;20370;-74
2023/01/27 12:46:22;;;;;;;20.95;12.40;;;4.70;97.40;;;;;;5108984;28;20164;-73
2023/01/27 12:48:51;;;;;;;19.60;10.07;;;4.60;97.50;;;;;;5108433;28;20077;-73
2023/01/27 12:51:22;;;;;;;20.00;10.25;;;4.40;97.60;;;;;;5090510;28;20028;-77
2023/01/27 12:54:26;;;;;;;25.17;11.68;;;4.50;98.10;;;;;;5088511;28;20052;-73
2023/01/27 12:56:54;;;;;;;19.23;10.82;;;4.70;98.40;;;;;;5093363;28;20385;-74
2023/01/27 12:59:23;;;;;;;22.20;10.85;;;4.70;98.00;;;;;;5104124;28;20116;-74
2023/01/27 13:02:19;;;;;;;21.70;12.00;;;4.80;98.10;;;;;;5104636;28;20114;-74
2023/01/27 13:05:00;;;;;;;16.65;9.35;;;5.00;97.90;;;;;;5083481;28;20076;-73
2023/01/27 13:07:35;;;;;;;22.08;10.45;;;5.10;97.60;;;;;;5100792;28;20028;-73
2023/01/27 13:10:14;;;;;;;21.13;11.48;;;5.00;96.70;;;;;;5082845;28;20585;-74
2023/01/27 13:12:51;;;;;;;20.08;10.88;;;4.90;97.10;;;;;;5103098;28;20058;-74
2023/01/27 13:15:23;;;;;;;21.15;9.35;;;4.90;97.00;;;;;;5103168;28;20053;-73
2023/01/27 13:17:51;;;;;;;18.45;9.77;;;5.00;96.90;;;;;;5104997;28;20066;-76
2023/01/27 13:20:30;;;;;;;17.52;10.00;;;5.00;96.90;;;;;;5104570;28;20098;-73
2023/01/27 13:23:10;;;;;;;17.40;10.30;;;5.00;96.80;;;;;;5103944;28;20057;-73
2023/01/27 13:25:41;;;;;;;17.35;9.77;;;4.90;96.00;;;;;;5103435;28;20484;-78
2023/01/27 13:28:10;;;;;;;19.83;13.15;;;4.90;95.90;;;;;;5104835;28;20096;-73